createdAt,value
2022-11-15T00:01:46.052Z,47.95
2022-11-15T00:04:31.903Z,48.70
2022-11-15T00:07:40.212Z,48.75
2022-11-15T00:10:22.600Z,46.65
2022-11-15T00:13:13.102Z,46.17
2022-11-15T00:16:00.550Z,45.30
2022-11-15T00:18:50.365Z,44.60
2022-11-15T00:21:36.457Z,42.38
2022-11-15T00:24:21.917Z,43.25
2022-11-15T00:27:08.158Z,40.53
2022-11-15T00:29:54.384Z,40.60
2022-11-15T00:32:40.005Z,40.33
2022-11-15T00:35:25.587Z,40.17
2022-11-15T00:38:11.154Z,38.38
2022-11-15T00:40:56.670Z,37.95
2022-11-15T00:43:44.492Z,39.15
2022-11-15T00:46:30.323Z,38.92
2022-11-15T00:49:15.930Z,39.30
2022-11-15T00:52:01.468Z,39.67
2022-11-15T00:54:46.972Z,38.25
2022-11-15T00:57:32.396Z,39.25
2022-11-15T01:00:18.131Z,37.45
2022-11-15T01:03:03.287Z,35.35
2022-11-15T01:05:48.776Z,32.45
2022-11-15T01:08:35.349Z,30.83
2022-11-15T01:11:20.481Z,30.23
2022-11-15T01:14:06.194Z,27.70
2022-11-15T01:16:51.676Z,26.45
2022-11-15T01:19:37.331Z,22.55
2022-11-15T01:22:22.999Z,21.60
2022-11-15T01:25:08.477Z,21.42
2022-11-15T01:27:53.938Z,22.30
2022-11-15T01:30:39.455Z,19.63
2022-11-15T01:33:24.863Z,18.42
2022-11-15T01:36:25.364Z,20.25
2022-11-15T01:39:10.710Z,18.80
2022-11-15T01:41:56.454Z,19.17
2022-11-15T01:44:43.445Z,19.50
2022-11-15T01:47:40.161Z,18.75
2022-11-15T01:50:30.825Z,18.83
2022-11-15T01:53:17.216Z,17.67
2022-11-15T01:56:09.055Z,17.27
2022-11-15T01:58:57.894Z,16.88
2022-11-15T02:01:43.959Z,15.27
2022-11-15T02:07:19.444Z,13.65
2022-11-15T02:10:15.372Z,12.77
2022-11-15T02:13:02.768Z,12.77
2022-11-15T02:16:14.365Z,12.27
2022-11-15T02:19:08.568Z,12.82
2022-11-15T02:22:07.985Z,12.13
2022-11-15T02:25:05.434Z,12.07
2022-11-15T02:28:18.717Z,11.63
2022-11-15T02:31:06.801Z,12.88
2022-11-15T02:34:01.186Z,12.48
2022-11-15T02:37:15.932Z,14.85
2022-11-15T02:40:31.018Z,13.27
2022-11-15T02:43:45.423Z,13.90
2022-11-15T02:47:13.885Z,14.13
2022-11-15T02:50:09.127Z,14.90
2022-11-15T02:52:54.471Z,14.00
2022-11-15T02:55:45.872Z,14.68
2022-11-15T02:58:37.400Z,13.57
2022-11-15T03:01:31.704Z,11.70
2022-11-15T03:04:36.523Z,12.18
2022-11-15T03:07:37.758Z,10.57
2022-11-15T03:10:32.982Z,9.70
2022-11-15T03:13:32.214Z,8.95
2022-11-15T03:16:35.885Z,10.15
2022-11-15T03:19:47.635Z,8.73
2022-11-15T03:22:41.221Z,8.05
2022-11-15T03:25:29.171Z,9.18
2022-11-15T03:28:23.256Z,7.35
2022-11-15T03:31:29.771Z,7.25
2022-11-15T03:37:26.530Z,6.77
2022-11-15T03:40:12.810Z,6.25
2022-11-15T03:43:38.998Z,6.43
2022-11-15T03:46:27.016Z,6.20
2022-11-15T03:49:22.922Z,6.60
2022-11-15T03:52:08.584Z,5.50
2022-11-15T03:54:57.067Z,6.60
2022-11-15T03:57:43.193Z,7.20
2022-11-15T04:03:14.579Z,7.28
2022-11-15T04:05:59.905Z,7.00
2022-11-15T04:08:45.551Z,6.95
2022-11-15T04:11:30.988Z,7.22
2022-11-15T04:14:16.344Z,7.43
2022-11-15T04:17:01.754Z,6.97
2022-11-15T04:20:05.806Z,6.40
2022-11-15T04:23:12.295Z,7.85
2022-11-15T04:26:04.607Z,6.88
2022-11-15T04:29:09.418Z,6.75
2022-11-15T04:31:54.737Z,7.40
2022-11-15T04:34:40.341Z,6.25
2022-11-15T04:37:25.818Z,7.18
2022-11-15T04:40:11.434Z,6.80
2022-11-15T04:43:03.260Z,6.88
2022-11-15T04:45:48.931Z,6.82
2022-11-15T04:48:34.408Z,6.55
2022-11-15T04:51:20.628Z,6.82
2022-11-15T04:56:51.223Z,6.38
2022-11-15T04:59:36.856Z,6.43
2022-11-15T05:02:22.151Z,6.28
2022-11-15T05:05:08.109Z,7.70
2022-11-15T05:07:53.318Z,6.43
2022-11-15T05:10:38.993Z,6.88
2022-11-15T05:13:24.619Z,5.65
2022-11-15T05:16:10.386Z,6.70
2022-11-15T05:18:56.141Z,6.47
2022-11-15T05:21:41.655Z,7.22
2022-11-15T05:24:26.964Z,8.02
2022-11-15T05:27:12.488Z,8.18
2022-11-15T05:29:57.677Z,9.15
2022-11-15T05:32:44.364Z,7.50
2022-11-15T05:35:42.327Z,8.70
2022-11-15T05:38:27.618Z,9.95
2022-11-15T05:41:13.936Z,9.27
2022-11-15T05:44:01.454Z,8.52
2022-11-15T05:46:48.964Z,9.07
2022-11-15T05:49:39.463Z,10.02
2022-11-15T05:52:29.382Z,10.05
2022-11-15T05:55:15.428Z,11.05
2022-11-15T05:58:02.065Z,10.60
2022-11-15T06:00:47.729Z,11.68
2022-11-15T06:03:33.351Z,11.68
2022-11-15T06:09:04.149Z,11.80
2022-11-15T06:11:49.809Z,12.80
2022-11-15T06:14:35.104Z,12.50
2022-11-15T06:17:20.533Z,12.45
2022-11-15T06:20:06.657Z,13.68
2022-11-15T06:22:52.288Z,12.48
2022-11-15T06:25:37.778Z,13.52
2022-11-15T06:28:23.358Z,13.27
2022-11-15T06:31:11.982Z,13.88
2022-11-15T06:33:57.258Z,13.63
2022-11-15T06:36:42.676Z,12.70
2022-11-15T06:39:28.133Z,12.88
2022-11-15T06:42:13.631Z,13.35
2022-11-15T06:44:59.208Z,12.13
2022-11-15T06:47:48.166Z,12.45
2022-11-15T06:50:33.705Z,12.57
2022-11-15T06:53:19.241Z,12.93
2022-11-15T06:56:07.326Z,13.05
2022-11-15T06:58:52.831Z,13.98
2022-11-15T07:01:38.212Z,13.43
2022-11-15T07:04:23.759Z,14.25
2022-11-15T07:07:09.309Z,13.75
2022-11-15T07:09:54.696Z,15.27
2022-11-15T07:12:40.137Z,15.82
2022-11-15T07:15:26.792Z,16.38
2022-11-15T07:18:12.670Z,16.00
2022-11-15T07:21:05.492Z,17.95
2022-11-15T07:23:50.975Z,17.95
2022-11-15T07:26:36.406Z,19.48
2022-11-15T07:29:22.095Z,20.00
2022-11-15T07:32:07.667Z,19.92
2022-11-15T07:34:53.232Z,20.15
2022-11-15T07:37:38.742Z,20.40
2022-11-15T07:40:25.217Z,21.55
2022-11-15T07:43:10.784Z,21.17
2022-11-15T07:45:59.408Z,22.95
2022-11-15T07:48:45.682Z,21.95
2022-11-15T07:51:34.660Z,20.40
2022-11-15T07:54:20.112Z,21.65
2022-11-15T07:57:07.822Z,21.17
2022-11-15T07:59:53.803Z,21.30
2022-11-15T08:02:39.275Z,20.15
2022-11-15T08:05:24.627Z,21.38
2022-11-15T08:08:11.863Z,19.85
2022-11-15T08:10:59.254Z,20.73
2022-11-15T08:13:44.773Z,19.55
2022-11-15T08:16:30.470Z,19.63
2022-11-15T08:19:16.150Z,18.15
2022-11-15T08:22:01.908Z,18.27
2022-11-15T08:24:47.514Z,16.77
2022-11-15T08:27:32.923Z,17.98
2022-11-15T08:30:18.392Z,17.33
2022-11-15T08:33:04.064Z,16.92
2022-11-15T08:35:49.596Z,15.55
2022-11-15T08:38:35.162Z,15.35
2022-11-15T08:44:14.476Z,12.43
2022-11-15T08:46:59.951Z,12.98
2022-11-15T08:49:45.457Z,12.70
2022-11-15T08:52:31.094Z,12.25
2022-11-15T08:55:17.700Z,11.88
2022-11-15T08:58:03.527Z,11.77
2022-11-15T09:00:49.085Z,11.68
2022-11-15T09:03:34.661Z,11.05
2022-11-15T09:06:20.041Z,9.93
2022-11-15T09:09:05.599Z,9.35
2022-11-15T09:11:51.762Z,8.70
2022-11-15T09:17:24.996Z,8.05
2022-11-15T09:20:11.654Z,7.63
2022-11-15T09:23:01.021Z,7.70
2022-11-15T09:25:46.615Z,6.68
2022-11-15T09:28:34.326Z,5.38
2022-11-15T09:31:22.229Z,4.78
2022-11-15T09:34:08.111Z,4.63
2022-11-15T09:36:53.743Z,4.38
2022-11-15T09:39:39.296Z,3.53
2022-11-15T09:42:51.539Z,3.00
2022-11-15T09:45:55.211Z,3.65
2022-11-15T09:49:04.991Z,3.15
2022-11-15T09:51:58.939Z,3.22
2022-11-15T09:54:53.232Z,3.25
2022-11-15T09:57:39.673Z,3.30
2022-11-15T10:00:45.404Z,3.15
2022-11-15T10:03:15.240Z,3.13
2022-11-15T10:05:48.703Z,2.63
2022-11-15T10:08:41.563Z,2.65
2022-11-15T10:14:23.147Z,2.88
2022-11-15T10:16:59.452Z,2.50
2022-11-15T10:20:06.060Z,2.33
2022-11-15T10:22:40.515Z,2.70
2022-11-15T10:25:10.357Z,2.30
2022-11-15T10:27:37.657Z,2.10
2022-11-15T10:30:11.273Z,2.22
2022-11-15T10:32:38.559Z,2.03
2022-11-15T10:35:20.215Z,2.80
2022-11-15T10:37:47.101Z,2.30
2022-11-15T10:40:23.396Z,2.15
2022-11-15T10:43:10.673Z,2.03
2022-11-15T10:45:39.262Z,2.00
2022-11-15T10:48:15.095Z,2.13
2022-11-15T10:50:47.075Z,2.15
2022-11-15T10:53:21.276Z,2.33
2022-11-15T10:55:50.669Z,2.00
2022-11-15T10:58:41.173Z,2.10
2022-11-15T11:01:18.720Z,2.00
2022-11-15T11:04:00.055Z,1.85
2022-11-15T11:06:27.290Z,2.33
2022-11-15T11:09:06.188Z,2.00
2022-11-15T11:11:51.075Z,2.88
2022-11-15T11:14:24.419Z,1.92
2022-11-15T11:16:56.722Z,2.35
2022-11-15T11:19:39.559Z,2.95
2022-11-15T11:22:34.565Z,2.80
2022-11-15T11:25:01.341Z,2.72
2022-11-15T11:27:31.526Z,2.50
2022-11-15T11:30:04.100Z,2.05
2022-11-15T11:32:36.756Z,2.83
2022-11-15T11:35:25.917Z,2.70
2022-11-15T11:38:20.343Z,2.70
2022-11-15T11:41:11.993Z,2.63
2022-11-15T11:44:08.657Z,3.00
2022-11-15T11:46:56.318Z,2.45
2022-11-15T11:49:36.372Z,2.75
2022-11-15T11:52:18.586Z,2.53
2022-11-15T11:55:00.148Z,2.40
2022-11-15T11:57:52.313Z,2.42
2022-11-15T12:00:24.746Z,2.58
2022-11-15T12:03:08.889Z,2.00
2022-11-15T12:05:44.271Z,2.25
2022-11-15T12:08:25.771Z,2.67
2022-11-15T12:11:18.445Z,1.95
2022-11-15T12:13:49.018Z,2.33
2022-11-15T12:16:18.445Z,2.70
2022-11-15T12:18:50.393Z,2.38
2022-11-15T12:21:46.603Z,2.47
2022-11-15T12:24:24.430Z,2.10
2022-11-15T12:27:02.407Z,2.90
2022-11-15T12:29:40.660Z,2.80
2022-11-15T12:32:33.813Z,2.30
2022-11-15T12:35:02.974Z,2.05
2022-11-15T12:37:38.990Z,2.53
2022-11-15T12:40:24.628Z,2.33
2022-11-15T12:43:09.582Z,2.30
2022-11-15T12:45:42.464Z,2.50
2022-11-15T12:48:18.315Z,2.78
2022-11-15T12:50:59.454Z,2.92
2022-11-15T12:53:26.497Z,2.15
2022-11-15T12:56:05.663Z,2.30
2022-11-15T12:58:49.597Z,2.78
2022-11-15T13:01:43.231Z,2.42
2022-11-15T13:04:30.792Z,2.20
2022-11-15T13:07:04.393Z,2.60
2022-11-15T13:09:37.369Z,2.53
2022-11-15T13:12:27.808Z,2.38
2022-11-15T13:15:13.680Z,1.83
2022-11-15T13:17:51.561Z,2.45
2022-11-15T13:20:20.267Z,2.20
2022-11-15T13:23:08.238Z,2.20
2022-11-15T13:25:40.621Z,1.98
2022-11-15T13:28:16.582Z,2.13
2022-11-15T13:31:27.369Z,1.90
2022-11-15T13:33:58.106Z,2.65
2022-11-15T13:36:36.804Z,2.20
2022-11-15T13:39:03.684Z,2.22
2022-11-15T13:41:36.135Z,1.90
2022-11-15T13:44:04.884Z,2.33
2022-11-15T13:46:35.181Z,2.40
2022-11-15T13:49:04.807Z,2.65
2022-11-15T13:51:45.258Z,2.70
2022-11-15T13:54:30.058Z,2.53
2022-11-15T13:57:02.518Z,2.20
2022-11-15T13:59:31.061Z,2.17
2022-11-15T14:02:04.467Z,2.20
2022-11-15T14:04:34.813Z,2.72
2022-11-15T14:07:03.105Z,2.50
2022-11-15T14:09:38.930Z,2.70
2022-11-15T14:12:30.120Z,2.40
2022-11-15T14:14:58.426Z,2.78
2022-11-15T14:17:31.339Z,2.95
2022-11-15T14:19:59.129Z,3.15
2022-11-15T14:22:29.136Z,3.13
2022-11-15T14:25:08.290Z,3.40
2022-11-15T14:27:35.435Z,2.88
2022-11-15T14:30:02.665Z,3.17
2022-11-15T14:32:44.983Z,3.55
2022-11-15T14:35:22.152Z,3.35
2022-11-15T14:37:49.364Z,2.97
2022-11-15T14:40:21.734Z,3.10
2022-11-15T14:42:50.135Z,3.60
2022-11-15T14:45:22.530Z,4.80
2022-11-15T14:47:49.680Z,6.05
2022-11-15T14:50:18.945Z,4.60
2022-11-15T14:52:46.336Z,6.22
2022-11-15T14:55:22.108Z,5.35
2022-11-15T14:57:49.096Z,3.92
2022-11-15T15:00:16.626Z,4.40
2022-11-15T15:02:46.239Z,3.60
2022-11-15T15:05:24.252Z,5.00
2022-11-15T15:07:54.123Z,5.15
2022-11-15T15:13:26.959Z,5.00
2022-11-15T15:15:53.890Z,5.22
2022-11-15T15:18:21.420Z,4.60
2022-11-15T15:21:01.091Z,4.10
2022-11-15T15:23:30.238Z,5.07
2022-11-15T15:25:57.419Z,4.22
2022-11-15T15:28:26.626Z,4.32
2022-11-15T15:30:55.514Z,5.10
2022-11-15T15:33:22.279Z,5.25
2022-11-15T15:35:49.205Z,4.82
2022-11-15T15:38:16.854Z,5.45
2022-11-15T15:40:43.829Z,5.45
2022-11-15T15:43:10.746Z,6.47
2022-11-15T15:45:41.103Z,6.55
2022-11-15T15:48:14.729Z,7.45
2022-11-15T15:50:46.310Z,9.38
2022-11-15T15:53:14.967Z,7.95
2022-11-15T15:55:42.491Z,7.95
2022-11-15T15:58:10.278Z,8.43
2022-11-15T16:00:38.069Z,6.38
2022-11-15T16:03:04.976Z,7.70
2022-11-15T16:05:31.771Z,8.00
2022-11-15T16:07:58.727Z,7.28
2022-11-15T16:10:31.264Z,8.00
2022-11-15T16:12:59.031Z,8.80
2022-11-15T16:15:30.721Z,9.05
2022-11-15T16:18:00.107Z,7.93
2022-11-15T16:20:36.354Z,8.27
2022-11-15T16:23:08.985Z,8.85
2022-11-15T16:25:48.193Z,8.65
2022-11-15T16:28:27.543Z,8.13
2022-11-15T16:31:03.782Z,8.68
2022-11-15T16:33:31.853Z,9.35
2022-11-15T16:35:59.583Z,8.77
2022-11-15T16:38:27.321Z,9.85
2022-11-15T16:40:54.839Z,8.95
2022-11-15T16:43:22.418Z,8.63
2022-11-15T16:45:51.813Z,8.90
2022-11-15T16:48:29.093Z,9.32
2022-11-15T16:50:58.613Z,14.07
2022-11-15T16:53:28.007Z,15.35
2022-11-15T16:55:56.564Z,13.80
2022-11-15T16:58:24.644Z,9.25
2022-11-15T17:00:53.742Z,26.52
2022-11-15T17:03:25.002Z,12.63
2022-11-15T17:05:52.951Z,12.23
2022-11-15T17:08:22.214Z,10.80
2022-11-15T17:10:49.924Z,13.40
2022-11-15T17:13:18.224Z,13.68
2022-11-15T17:15:45.281Z,13.02
2022-11-15T17:18:15.919Z,11.32
2022-11-15T17:20:43.654Z,11.00
2022-11-15T17:23:14.511Z,14.43
2022-11-15T17:25:41.921Z,11.30
2022-11-15T17:28:08.803Z,11.10
2022-11-15T17:30:35.806Z,13.27
2022-11-15T17:33:02.665Z,9.02
2022-11-15T17:35:29.603Z,7.82
2022-11-15T17:37:56.428Z,8.20
2022-11-15T17:40:23.575Z,8.15
2022-11-15T17:42:50.383Z,7.65
2022-11-15T17:45:17.409Z,9.73
2022-11-15T17:47:44.251Z,9.52
2022-11-15T17:50:11.686Z,9.60
2022-11-15T17:52:38.514Z,12.40
2022-11-15T17:55:05.810Z,8.55
2022-11-15T17:57:32.668Z,10.00
2022-11-15T17:59:59.614Z,9.23
2022-11-15T18:02:26.543Z,9.25
2022-11-15T18:04:53.444Z,9.05
2022-11-15T18:07:20.278Z,8.85
2022-11-15T18:09:47.354Z,8.90
2022-11-15T18:12:14.388Z,9.30
2022-11-15T18:14:41.250Z,9.82
2022-11-15T18:17:08.068Z,8.95
2022-11-15T18:19:36.545Z,9.73
2022-11-15T18:22:05.425Z,10.55
2022-11-15T18:24:35.161Z,10.05
2022-11-15T18:27:03.968Z,9.35
2022-11-15T18:29:31.107Z,10.65
2022-11-15T18:31:58.936Z,10.00
2022-11-15T18:34:33.605Z,12.18
2022-11-15T18:37:02.853Z,10.30
2022-11-15T18:39:30.268Z,10.43
2022-11-15T18:41:57.265Z,9.88
2022-11-15T18:44:24.273Z,9.57
2022-11-15T18:46:51.196Z,10.25
2022-11-15T18:49:19.675Z,9.65
2022-11-15T18:51:47.349Z,8.98
2022-11-15T18:54:17.028Z,10.30
2022-11-15T18:56:45.603Z,10.20
2022-11-15T18:59:13.337Z,10.65
2022-11-15T19:01:48.543Z,10.50
2022-11-15T19:04:20.732Z,10.55
2022-11-15T19:06:49.230Z,11.48
2022-11-15T19:09:17.933Z,11.05
2022-11-15T19:11:46.587Z,11.10
2022-11-15T19:14:15.857Z,11.05
2022-11-15T19:16:52.655Z,10.88
2022-11-15T19:19:25.437Z,11.35
2022-11-15T19:21:53.244Z,11.30
2022-11-15T19:24:20.596Z,10.45
2022-11-15T19:26:47.569Z,13.10
2022-11-15T19:29:18.301Z,11.98
2022-11-15T19:31:45.723Z,11.25
2022-11-15T19:34:12.909Z,12.18
2022-11-15T19:36:44.485Z,13.07
2022-11-15T19:39:13.863Z,11.98
2022-11-15T19:41:43.017Z,10.82
2022-11-15T19:44:11.494Z,12.27
2022-11-15T19:46:38.986Z,10.95
2022-11-15T19:49:10.622Z,11.38
2022-11-15T19:51:39.113Z,10.27
2022-11-15T19:54:09.796Z,11.05
2022-11-15T19:56:37.445Z,11.43
2022-11-15T19:59:05.218Z,11.68
2022-11-15T20:01:36.324Z,12.18
2022-11-15T20:04:03.559Z,11.43
2022-11-15T20:06:32.647Z,11.63
2022-11-15T20:08:59.900Z,12.02
2022-11-15T20:11:26.837Z,12.35
2022-11-15T20:13:58.824Z,12.32
2022-11-15T20:16:26.078Z,11.77
2022-11-15T20:18:53.329Z,11.77
2022-11-15T20:21:21.564Z,11.48
2022-11-15T20:23:50.700Z,12.15
2022-11-15T20:26:18.595Z,11.40
2022-11-15T20:28:45.618Z,11.98
2022-11-15T20:31:13.003Z,11.63
2022-11-15T20:33:40.285Z,12.30
2022-11-15T20:36:12.801Z,11.43
2022-11-15T20:38:39.971Z,10.73
2022-11-15T20:41:07.004Z,11.68
2022-11-15T20:43:33.921Z,11.00
2022-11-15T20:46:00.909Z,11.82
2022-11-15T20:48:27.943Z,11.10
2022-11-15T20:51:11.509Z,11.65
2022-11-15T20:53:38.688Z,11.70
2022-11-15T20:56:17.491Z,11.75
2022-11-15T20:58:45.821Z,11.15
2022-11-15T21:01:15.104Z,11.25
2022-11-15T21:03:42.187Z,11.23
2022-11-15T21:06:09.583Z,11.73
2022-11-15T21:08:55.124Z,11.00
2022-11-15T21:11:40.390Z,11.30
2022-11-15T21:14:09.450Z,11.38
2022-11-15T21:16:37.358Z,11.60
2022-11-15T21:19:05.655Z,11.52
2022-11-15T21:21:32.459Z,11.63
2022-11-15T21:23:59.327Z,11.60
2022-11-15T21:26:26.869Z,11.73
2022-11-15T21:28:53.737Z,11.85
2022-11-15T21:31:20.586Z,11.82
2022-11-15T21:33:47.430Z,11.98
2022-11-15T21:36:14.648Z,11.35
2022-11-15T21:38:41.701Z,12.13
2022-11-15T21:41:08.585Z,11.43
2022-11-15T21:43:35.801Z,11.07
2022-11-15T21:46:04.781Z,11.57
2022-11-15T21:48:34.125Z,11.15
2022-11-15T21:51:07.346Z,11.18
2022-11-15T21:53:34.909Z,11.60
2022-11-15T21:56:02.098Z,11.07
2022-11-15T21:58:29.903Z,10.10
2022-11-15T22:01:15.940Z,9.75
2022-11-15T22:03:43.369Z,10.88
2022-11-15T22:06:16.014Z,10.70
2022-11-15T22:08:45.361Z,10.20
2022-11-15T22:11:12.533Z,9.77
2022-11-15T22:13:39.702Z,10.57
2022-11-15T22:16:07.580Z,10.65
2022-11-15T22:18:34.706Z,10.40
2022-11-15T22:21:12.256Z,11.15
2022-11-15T22:23:40.192Z,10.25
2022-11-15T22:26:08.433Z,11.35
2022-11-15T22:28:36.079Z,10.05
2022-11-15T22:31:03.684Z,5.22
2022-11-15T22:33:32.197Z,4.22
2022-11-15T22:35:59.936Z,3.80
2022-11-15T22:38:27.651Z,4.15
2022-11-15T22:40:55.236Z,3.85
2022-11-15T22:43:24.346Z,3.35
2022-11-15T22:45:54.957Z,2.85
2022-11-15T22:48:26.160Z,3.25
2022-11-15T22:50:53.373Z,3.83
2022-11-15T22:53:20.628Z,4.03
2022-11-15T22:55:56.111Z,4.50
2022-11-15T23:00:52.540Z,4.63
2022-11-15T23:03:21.170Z,4.82
2022-11-15T23:05:48.117Z,5.32
2022-11-15T23:08:15.510Z,4.65
2022-11-15T23:11:00.952Z,5.10
2022-11-15T23:13:29.426Z,4.78
2022-11-15T23:16:23.605Z,3.53
2022-11-15T23:18:56.639Z,3.20
2022-11-15T23:21:47.838Z,2.88
2022-11-15T23:24:15.783Z,2.95
2022-11-15T23:26:43.968Z,3.03
2022-11-15T23:29:12.969Z,3.15
2022-11-15T23:32:01.999Z,2.95
2022-11-15T23:34:35.205Z,2.90
2022-11-15T23:37:02.154Z,2.97
2022-11-15T23:39:28.979Z,4.93
2022-11-15T23:41:56.123Z,4.65
2022-11-15T23:44:23.686Z,5.18
2022-11-15T23:46:50.820Z,5.35
2022-11-15T23:49:17.660Z,5.18
2022-11-15T23:51:44.799Z,5.10
2022-11-15T23:54:12.304Z,5.07
2022-11-15T23:56:39.701Z,4.75
2022-11-15T23:59:07.016Z,4.72
